Selby, United Kingdom
Current Conditions -  °F | °C
As of 5:50 PM on Thursday 30 Oct 2014 (Local Time) from EGXU Reporting Station
Broken Clouds Broken Clouds  
Wind Chill: 61°   Ceiling: 4800
Heat Index: 61°   Visibility: 5mi
Dew Point: 57°   Wind: 6mph
Humidity: 88%   Direction: 130°SE
Pressure: 29.97"   Gusts: NA
Location:  53.78°N, 1.07°W
Report Text: EGXU 301750Z AUTO 13005KT 8000 // SCT042/// BKN048/// 16/14 Q1015
Loading
Personal Weather Stations






























Interactive Weather Map
Tropical Storm Tracking
New forecast layout! Learn more

10-Day Weather Forecast

Advertisements
Track Severe Weather on mobile